sensor_id;sensor_type;location;lat;lon;timestamp;P1;durP1;ratioP1;P2;durP2;ratioP2
16673;SDS011;8450;52.654;10.326;2023-02-24T08:12:49;3.27;;;1.90;;
16673;SDS011;8450;52.654;10.326;2023-02-24T08:15:19;3.20;;;1.80;;
16673;SDS011;8450;52.654;10.326;2023-02-24T08:17:53;3.83;;;1.77;;
16673;SDS011;8450;52.654;10.326;2023-02-24T08:20:23;9.50;;;1.80;;
16673;SDS011;8450;52.654;10.326;2023-02-24T08:22:50;2.93;;;1.57;;
16673;SDS011;8450;52.654;10.326;2023-02-24T08:25:25;4.97;;;1.87;;
16673;SDS011;8450;52.654;10.326;2023-02-24T08:27:59;4.40;;;1.87;;
16673;SDS011;8450;52.654;10.326;2023-02-24T08:30:29;4.83;;;1.77;;
16673;SDS011;8450;52.654;10.326;2023-02-24T08:33:02;5.03;;;1.97;;
16673;SDS011;8450;52.654;10.326;2023-02-24T08:35:33;8.63;;;2.53;;
16673;SDS011;8450;52.654;10.326;2023-02-24T08:38:04;4.70;;;1.73;;
16673;SDS011;8450;52.654;10.326;2023-02-24T08:40:39;2.07;;;1.70;;
16673;SDS011;8450;52.654;10.326;2023-02-24T08:43:22;7.17;;;2.00;;
16673;SDS011;8450;52.654;10.326;2023-02-24T08:51:22;3.93;;;1.80;;
16673;SDS011;8450;52.654;10.326;2023-02-24T08:53:55;5.53;;;2.20;;
16673;SDS011;8450;52.654;10.326;2023-02-24T08:56:24;2.87;;;2.07;;
16673;SDS011;8450;52.654;10.326;2023-02-24T09:01:35;7.60;;;1.90;;
16673;SDS011;8450;52.654;10.326;2023-02-24T09:04:07;6.10;;;2.33;;
16673;SDS011;8450;52.654;10.326;2023-02-24T09:06:40;4.20;;;1.93;;
16673;SDS011;8450;52.654;10.326;2023-02-24T09:11:55;7.47;;;2.17;;
16673;SDS011;8450;52.654;10.326;2023-02-24T09:14:26;4.03;;;1.87;;
16673;SDS011;8450;52.654;10.326;2023-02-24T09:16:54;4.07;;;2.10;;
16673;SDS011;8450;52.654;10.326;2023-02-24T09:22:21;5.27;;;2.13;;
16673;SDS011;8450;52.654;10.326;2023-02-24T09:24:57;4.07;;;2.07;;
16673;SDS011;8450;52.654;10.326;2023-02-24T09:27:54;3.83;;;1.97;;
16673;SDS011;8450;52.654;10.326;2023-02-24T09:30:37;3.70;;;2.10;;
16673;SDS011;8450;52.654;10.326;2023-02-24T09:33:18;7.97;;;2.63;;
16673;SDS011;8450;52.654;10.326;2023-02-24T09:41:22;4.27;;;2.70;;
16673;SDS011;8450;52.654;10.326;2023-02-24T09:43:56;4.17;;;2.10;;
16673;SDS011;8450;52.654;10.326;2023-02-24T09:46:43;3.83;;;2.33;;
16673;SDS011;8450;52.654;10.326;2023-02-24T09:49:18;3.53;;;2.20;;
16673;SDS011;8450;52.654;10.326;2023-02-24T09:52:03;4.70;;;2.50;;
16673;SDS011;8450;52.654;10.326;2023-02-24T09:54:41;2.20;;;2.00;;
16673;SDS011;8450;52.654;10.326;2023-02-24T09:57:47;6.83;;;2.63;;
16673;SDS011;8450;52.654;10.326;2023-02-24T10:00:33;5.50;;;2.50;;
16673;SDS011;8450;52.654;10.326;2023-02-24T10:03:17;4.20;;;2.60;;
16673;SDS011;8450;52.654;10.326;2023-02-24T10:06:11;3.80;;;2.63;;
16673;SDS011;8450;52.654;10.326;2023-02-24T10:08:56;5.50;;;2.30;;
16673;SDS011;8450;52.654;10.326;2023-02-24T10:11:45;4.73;;;3.20;;
16673;SDS011;8450;52.654;10.326;2023-02-24T10:14:20;4.97;;;2.60;;
16673;SDS011;8450;52.654;10.326;2023-02-24T10:17:16;7.03;;;3.23;;
16673;SDS011;8450;52.654;10.326;2023-02-24T10:19:47;4.60;;;2.93;;
16673;SDS011;8450;52.654;10.326;2023-02-24T10:22:22;7.20;;;3.57;;
16673;SDS011;8450;52.654;10.326;2023-02-24T10:30:48;4.87;;;3.00;;
16673;SDS011;8450;52.654;10.326;2023-02-24T10:33:34;3.30;;;2.87;;
16673;SDS011;8450;52.654;10.326;2023-02-24T10:36:24;4.53;;;3.40;;
16673;SDS011;8450;52.654;10.326;2023-02-24T10:38:59;4.73;;;3.27;;
16673;SDS011;8450;52.654;10.326;2023-02-24T10:41:45;4.53;;;3.33;;
16673;SDS011;8450;52.654;10.326;2023-02-24T10:44:25;4.43;;;3.47;;
16673;SDS011;8450;52.654;10.326;2023-02-24T10:47:09;4.33;;;3.90;;
16673;SDS011;8450;52.654;10.326;2023-02-24T10:49:43;4.40;;;3.20;;
16673;SDS011;8450;52.654;10.326;2023-02-24T10:52:21;5.20;;;3.73;;
16673;SDS011;8450;52.654;10.326;2023-02-24T10:55:18;6.70;;;4.10;;
16673;SDS011;8450;52.654;10.326;2023-02-24T10:58:03;6.67;;;3.90;;
16673;SDS011;8450;52.654;10.326;2023-02-24T11:00:46;5.57;;;3.80;;
16673;SDS011;8450;52.654;10.326;2023-02-24T11:03:26;4.67;;;4.20;;
16673;SDS011;8450;52.654;10.326;2023-02-24T11:06:20;6.33;;;4.23;;
16673;SDS011;8450;52.654;10.326;2023-02-24T11:12:20;7.13;;;4.87;;
16673;SDS011;8450;52.654;10.326;2023-02-24T11:15:20;5.50;;;4.73;;
16673;SDS011;8450;52.654;10.326;2023-02-24T11:18:18;5.73;;;4.30;;
16673;SDS011;8450;52.654;10.326;2023-02-24T11:20:51;5.27;;;4.47;;
16673;SDS011;8450;52.654;10.326;2023-02-24T11:23:32;5.03;;;4.50;;
16673;SDS011;8450;52.654;10.326;2023-02-24T11:26:10;5.77;;;5.27;;
16673;SDS011;8450;52.654;10.326;2023-02-24T11:31:32;5.13;;;4.43;;
16673;SDS011;8450;52.654;10.326;2023-02-24T11:34:08;5.37;;;4.87;;
16673;SDS011;8450;52.654;10.326;2023-02-24T11:36:37;5.90;;;5.33;;
16673;SDS011;8450;52.654;10.326;2023-02-24T11:42:20;6.23;;;5.10;;
16673;SDS011;8450;52.654;10.326;2023-02-24T11:47:48;6.63;;;4.93;;
16673;SDS011;8450;52.654;10.326;2023-02-24T11:56:02;5.03;;;4.40;;
16673;SDS011;8450;52.654;10.326;2023-02-24T11:58:39;4.20;;;3.80;;
16673;SDS011;8450;52.654;10.326;2023-02-24T12:01:28;4.40;;;4.00;;
16673;SDS011;8450;52.654;10.326;2023-02-24T12:04:11;4.53;;;4.10;;
16673;SDS011;8450;52.654;10.326;2023-02-24T12:07:04;4.67;;;4.20;;
16673;SDS011;8450;52.654;10.326;2023-02-24T12:09:40;6.20;;;3.80;;
16673;SDS011;8450;52.654;10.326;2023-02-24T12:12:19;4.23;;;3.83;;
16673;SDS011;8450;52.654;10.326;2023-02-24T12:14:53;4.63;;;3.50;;
16673;SDS011;8450;52.654;10.326;2023-02-24T12:17:30;3.70;;;3.40;;
16673;SDS011;8450;52.654;10.326;2023-02-24T12:20:26;4.30;;;3.23;;
16673;SDS011;8450;52.654;10.326;2023-02-24T12:23:12;4.53;;;3.00;;
16673;SDS011;8450;52.654;10.326;2023-02-24T12:31:40;3.63;;;3.33;;
16673;SDS011;8450;52.654;10.326;2023-02-24T12:37:27;4.50;;;2.67;;
16673;SDS011;8450;52.654;10.326;2023-02-24T12:40:12;3.43;;;3.13;;
16673;SDS011;8450;52.654;10.326;2023-02-24T12:43:08;3.37;;;3.07;;
16673;SDS011;8450;52.654;10.326;2023-02-24T12:45:48;3.13;;;2.83;;
16673;SDS011;8450;52.654;10.326;2023-02-24T12:51:24;3.33;;;2.80;;
16673;SDS011;8450;52.654;10.326;2023-02-24T12:54:03;3.43;;;2.80;;
16673;SDS011;8450;52.654;10.326;2023-02-24T12:59:16;3.20;;;3.00;;
16673;SDS011;8450;52.654;10.326;2023-02-24T13:01:50;3.23;;;2.93;;
16673;SDS011;8450;52.654;10.326;2023-02-24T13:04:35;3.53;;;3.13;;
16673;SDS011;8450;52.654;10.326;2023-02-24T13:10:10;3.87;;;2.73;;
16673;SDS011;8450;52.654;10.326;2023-02-24T13:15:29;3.20;;;3.00;;
16673;SDS011;8450;52.654;10.326;2023-02-24T13:17:57;3.50;;;2.90;;
16673;SDS011;8450;52.654;10.326;2023-02-24T13:20:25;2.40;;;2.20;;
16673;SDS011;8450;52.654;10.326;2023-02-24T13:22:59;3.20;;;2.90;;
16673;SDS011;8450;52.654;10.326;2023-02-24T13:25:36;3.03;;;2.70;;
16673;SDS011;8450;52.654;10.326;2023-02-24T13:28:03;4.47;;;2.87;;
16673;SDS011;8450;52.654;10.326;2023-02-24T13:30:35;3.03;;;2.73;;
16673;SDS011;8450;52.654;10.326;2023-02-24T13:33:04;3.63;;;3.33;;
16673;SDS011;8450;52.654;10.326;2023-02-24T13:35:45;3.07;;;2.87;;
16673;SDS011;8450;52.654;10.326;2023-02-24T13:41:19;2.90;;;2.70;;
16673;SDS011;8450;52.654;10.326;2023-02-24T13:44:00;3.57;;;3.27;;
16673;SDS011;8450;52.654;10.326;2023-02-24T13:46:47;3.20;;;2.90;;
16673;SDS011;8450;52.654;10.326;2023-02-24T13:52:35;4.00;;;3.60;;
16673;SDS011;8450;52.654;10.326;2023-02-24T13:58:04;4.50;;;3.40;;
16673;SDS011;8450;52.654;10.326;2023-02-24T14:00:55;3.67;;;3.30;;
16673;SDS011;8450;52.654;10.326;2023-02-24T14:03:30;4.43;;;3.90;;
16673;SDS011;8450;52.654;10.326;2023-02-24T14:05:56;3.50;;;3.27;;
16673;SDS011;8450;52.654;10.326;2023-02-24T14:08:26;3.80;;;3.50;;
16673;SDS011;8450;52.654;10.326;2023-02-24T14:10:59;4.03;;;3.70;;
16673;SDS011;8450;52.654;10.326;2023-02-24T14:13:28;3.53;;;3.23;;
16673;SDS011;8450;52.654;10.326;2023-02-24T14:15:58;4.60;;;4.20;;
16673;SDS011;8450;52.654;10.326;2023-02-24T14:18:26;3.80;;;3.50;;
16673;SDS011;8450;52.654;10.326;2023-02-24T14:20:54;4.47;;;4.07;;
16673;SDS011;8450;52.654;10.326;2023-02-24T14:25:47;4.80;;;4.43;;
16673;SDS011;8450;52.654;10.326;2023-02-24T14:28:31;4.47;;;4.13;;
16673;SDS011;8450;52.654;10.326;2023-02-24T14:31:05;4.70;;;4.30;;
16673;SDS011;8450;52.654;10.326;2023-02-24T14:33:33;4.40;;;4.00;;
16673;SDS011;8450;52.654;10.326;2023-02-24T14:36:00;5.00;;;4.50;;
16673;SDS011;8450;52.654;10.326;2023-02-24T14:38:35;5.90;;;5.30;;
16673;SDS011;8450;52.654;10.326;2023-02-24T14:41:06;5.60;;;5.10;;
16673;SDS011;8450;52.654;10.326;2023-02-24T14:43:42;4.57;;;4.17;;
